sensor_id;sensor_type;location;lat;lon;timestamp;temperature;humidity
12634;DHT22;6382;48.614;8.880;2023-04-21T00:00:48;2.20;99.90
12634;DHT22;6382;48.614;8.880;2023-04-21T00:03:15;2.20;99.90
12634;DHT22;6382;48.614;8.880;2023-04-21T00:05:42;2.20;99.90
12634;DHT22;6382;48.614;8.880;2023-04-21T00:08:09;2.10;99.90
12634;DHT22;6382;48.614;8.880;2023-04-21T00:10:35;2.20;99.90
12634;DHT22;6382;48.614;8.880;2023-04-21T00:13:02;2.20;99.90
12634;DHT22;6382;48.614;8.880;2023-04-21T00:15:29;2.10;99.90
12634;DHT22;6382;48.614;8.880;2023-04-21T00:17:55;2.10;99.90
12634;DHT22;6382;48.614;8.880;2023-04-21T00:20:24;2.10;99.90
12634;DHT22;6382;48.614;8.880;2023-04-21T00:22:54;2.10;99.90
12634;DHT22;6382;48.614;8.880;2023-04-21T00:25:22;2.20;99.90
12634;DHT22;6382;48.614;8.880;2023-04-21T00:27:48;2.10;99.90
12634;DHT22;6382;48.614;8.880;2023-04-21T00:30:16;2.10;99.90
12634;DHT22;6382;48.614;8.880;2023-04-21T00:32:42;4.50;99.90
12634;DHT22;6382;48.614;8.880;2023-04-21T00:35:09;2.00;99.90
12634;DHT22;6382;48.614;8.880;2023-04-21T00:37:36;1.90;99.90
12634;DHT22;6382;48.614;8.880;2023-04-21T00:40:03;1.90;99.90
12634;DHT22;6382;48.614;8.880;2023-04-21T00:42:31;1.80;99.90
12634;DHT22;6382;48.614;8.880;2023-04-21T00:44:58;1.80;99.90
12634;DHT22;6382;48.614;8.880;2023-04-21T00:47:25;1.80;99.90
12634;DHT22;6382;48.614;8.880;2023-04-21T00:49:52;1.70;99.90
12634;DHT22;6382;48.614;8.880;2023-04-21T00:52:19;1.80;99.90
12634;DHT22;6382;48.614;8.880;2023-04-21T00:54:46;1.80;99.90
12634;DHT22;6382;48.614;8.880;2023-04-21T00:57:12;1.70;99.90
12634;DHT22;6382;48.614;8.880;2023-04-21T00:59:39;1.70;99.90
12634;DHT22;6382;48.614;8.880;2023-04-21T01:02:06;1.60;99.90
12634;DHT22;6382;48.614;8.880;2023-04-21T01:04:33;1.60;99.90
12634;DHT22;6382;48.614;8.880;2023-04-21T01:07:04;1.50;99.90
12634;DHT22;6382;48.614;8.880;2023-04-21T01:09:32;1.40;99.90
12634;DHT22;6382;48.614;8.880;2023-04-21T01:12:03;1.40;99.90
12634;DHT22;6382;48.614;8.880;2023-04-21T01:14:30;1.20;99.90
12634;DHT22;6382;48.614;8.880;2023-04-21T01:16:57;1.20;99.90
12634;DHT22;6382;48.614;8.880;2023-04-21T01:19:25;1.20;99.90
12634;DHT22;6382;48.614;8.880;2023-04-21T01:21:54;1.30;99.90
12634;DHT22;6382;48.614;8.880;2023-04-21T01:24:23;1.30;99.90
12634;DHT22;6382;48.614;8.880;2023-04-21T01:26:50;1.20;99.90
12634;DHT22;6382;48.614;8.880;2023-04-21T01:29:17;1.10;99.90
12634;DHT22;6382;48.614;8.880;2023-04-21T01:31:44;1.10;99.90
12634;DHT22;6382;48.614;8.880;2023-04-21T01:34:13;1.10;99.90
12634;DHT22;6382;48.614;8.880;2023-04-21T01:36:40;1.00;99.90
12634;DHT22;6382;48.614;8.880;2023-04-21T01:39:06;1.10;99.90
12634;DHT22;6382;48.614;8.880;2023-04-21T01:41:33;1.20;99.90
12634;DHT22;6382;48.614;8.880;2023-04-21T01:44:00;1.30;99.90
12634;DHT22;6382;48.614;8.880;2023-04-21T01:46:26;1.30;99.90
12634;DHT22;6382;48.614;8.880;2023-04-21T01:48:53;1.40;99.90
12634;DHT22;6382;48.614;8.880;2023-04-21T01:51:20;1.40;99.90
12634;DHT22;6382;48.614;8.880;2023-04-21T01:53:47;1.40;99.90
12634;DHT22;6382;48.614;8.880;2023-04-21T01:56:14;1.40;99.90
12634;DHT22;6382;48.614;8.880;2023-04-21T01:58:40;1.50;99.90
12634;DHT22;6382;48.614;8.880;2023-04-21T02:01:07;1.50;99.90
12634;DHT22;6382;48.614;8.880;2023-04-21T02:03:34;1.50;99.90
12634;DHT22;6382;48.614;8.880;2023-04-21T02:06:01;1.50;99.90
12634;DHT22;6382;48.614;8.880;2023-04-21T02:08:28;1.70;99.90
12634;DHT22;6382;48.614;8.880;2023-04-21T02:10:55;1.80;99.90
12634;DHT22;6382;48.614;8.880;2023-04-21T02:13:21;1.80;99.90
12634;DHT22;6382;48.614;8.880;2023-04-21T02:15:48;1.90;99.90
12634;DHT22;6382;48.614;8.880;2023-04-21T02:18:23;2.00;99.90
12634;DHT22;6382;48.614;8.880;2023-04-21T02:20:51;2.10;99.90
12634;DHT22;6382;48.614;8.880;2023-04-21T02:23:18;2.10;99.90
12634;DHT22;6382;48.614;8.880;2023-04-21T02:25:45;2.20;99.90
12634;DHT22;6382;48.614;8.880;2023-04-21T02:28:11;2.20;99.90
12634;DHT22;6382;48.614;8.880;2023-04-21T02:30:38;2.30;99.90
12634;DHT22;6382;48.614;8.880;2023-04-21T02:33:07;2.30;99.90
12634;DHT22;6382;48.614;8.880;2023-04-21T02:35:34;4.40;99.90
12634;DHT22;6382;48.614;8.880;2023-04-21T02:38:01;2.30;99.90
12634;DHT22;6382;48.614;8.880;2023-04-21T02:40:32;2.40;99.90
12634;DHT22;6382;48.614;8.880;2023-04-21T02:42:59;2.40;99.90
12634;DHT22;6382;48.614;8.880;2023-04-21T02:45:27;2.40;99.90
12634;DHT22;6382;48.614;8.880;2023-04-21T02:47:53;2.40;99.90
12634;DHT22;6382;48.614;8.880;2023-04-21T02:50:20;2.40;99.90
12634;DHT22;6382;48.614;8.880;2023-04-21T02:52:47;2.40;99.90
12634;DHT22;6382;48.614;8.880;2023-04-21T02:55:14;2.30;99.90
12634;DHT22;6382;48.614;8.880;2023-04-21T02:57:41;2.20;99.90
12634;DHT22;6382;48.614;8.880;2023-04-21T03:00:08;3.20;99.90
12634;DHT22;6382;48.614;8.880;2023-04-21T03:02:37;2.10;99.90
12634;DHT22;6382;48.614;8.880;2023-04-21T03:05:04;2.00;99.90
12634;DHT22;6382;48.614;8.880;2023-04-21T03:07:32;2.00;99.90
12634;DHT22;6382;48.614;8.880;2023-04-21T03:09:59;1.90;99.90
12634;DHT22;6382;48.614;8.880;2023-04-21T03:12:25;1.80;99.90
12634;DHT22;6382;48.614;8.880;2023-04-21T03:14:52;1.80;99.90
12634;DHT22;6382;48.614;8.880;2023-04-21T03:17:19;1.80;99.90
12634;DHT22;6382;48.614;8.880;2023-04-21T03:19:46;1.80;99.90
12634;DHT22;6382;48.614;8.880;2023-04-21T03:22:12;1.80;99.90
12634;DHT22;6382;48.614;8.880;2023-04-21T03:24:39;1.80;99.90
12634;DHT22;6382;48.614;8.880;2023-04-21T03:27:06;1.80;99.90
12634;DHT22;6382;48.614;8.880;2023-04-21T03:29:36;1.80;99.90
12634;DHT22;6382;48.614;8.880;2023-04-21T03:32:03;1.80;99.90
12634;DHT22;6382;48.614;8.880;2023-04-21T03:34:29;1.80;99.90
12634;DHT22;6382;48.614;8.880;2023-04-21T03:36:56;1.70;99.90
12634;DHT22;6382;48.614;8.880;2023-04-21T03:39:23;1.80;99.90
12634;DHT22;6382;48.614;8.880;2023-04-21T03:41:51;1.70;99.90
12634;DHT22;6382;48.614;8.880;2023-04-21T03:44:17;1.70;99.90
12634;DHT22;6382;48.614;8.880;2023-04-21T03:46:44;1.70;99.90
12634;DHT22;6382;48.614;8.880;2023-04-21T03:49:11;1.80;99.90
12634;DHT22;6382;48.614;8.880;2023-04-21T03:51:37;1.80;99.90
12634;DHT22;6382;48.614;8.880;2023-04-21T03:54:04;1.70;99.90
12634;DHT22;6382;48.614;8.880;2023-04-21T03:56:31;1.70;99.90
12634;DHT22;6382;48.614;8.880;2023-04-21T03:58:58;1.70;99.90
12634;DHT22;6382;48.614;8.880;2023-04-21T04:01:25;1.60;99.90
12634;DHT22;6382;48.614;8.880;2023-04-21T04:03:51;3.40;99.90
12634;DHT22;6382;48.614;8.880;2023-04-21T04:06:18;1.60;99.90
12634;DHT22;6382;48.614;8.880;2023-04-21T04:08:45;1.60;99.90
12634;DHT22;6382;48.614;8.880;2023-04-21T04:11:12;1.60;99.90
12634;DHT22;6382;48.614;8.880;2023-04-21T04:13:39;1.70;99.90
12634;DHT22;6382;48.614;8.880;2023-04-21T04:16:05;1.70;99.90
12634;DHT22;6382;48.614;8.880;2023-04-21T04:18:32;1.70;99.90
12634;DHT22;6382;48.614;8.880;2023-04-21T04:21:04;1.70;99.90
12634;DHT22;6382;48.614;8.880;2023-04-21T04:23:30;1.70;99.90
12634;DHT22;6382;48.614;8.880;2023-04-21T04:25:57;1.80;99.90
12634;DHT22;6382;48.614;8.880;2023-04-21T04:28:24;1.80;99.90
12634;DHT22;6382;48.614;8.880;2023-04-21T04:30:51;1.90;99.90
12634;DHT22;6382;48.614;8.880;2023-04-21T04:33:18;2.00;99.90
12634;DHT22;6382;48.614;8.880;2023-04-21T04:35:45;2.00;99.90
12634;DHT22;6382;48.614;8.880;2023-04-21T04:38:13;2.00;99.90
12634;DHT22;6382;48.614;8.880;2023-04-21T04:40:42;2.00;99.90
12634;DHT22;6382;48.614;8.880;2023-04-21T04:43:09;2.10;99.90
12634;DHT22;6382;48.614;8.880;2023-04-21T04:45:36;2.00;99.90
12634;DHT22;6382;48.614;8.880;2023-04-21T04:48:04;2.10;99.90
12634;DHT22;6382;48.614;8.880;2023-04-21T04:50:31;2.10;99.90
12634;DHT22;6382;48.614;8.880;2023-04-21T04:52:58;2.20;99.90
12634;DHT22;6382;48.614;8.880;2023-04-21T04:55:24;2.30;99.90
12634;DHT22;6382;48.614;8.880;2023-04-21T04:57:51;2.40;99.90
12634;DHT22;6382;48.614;8.880;2023-04-21T05:00:18;2.40;99.90
12634;DHT22;6382;48.614;8.880;2023-04-21T05:02:45;2.30;99.90
12634;DHT22;6382;48.614;8.880;2023-04-21T05:05:12;2.30;99.90
12634;DHT22;6382;48.614;8.880;2023-04-21T05:07:39;2.50;99.90
12634;DHT22;6382;48.614;8.880;2023-04-21T05:10:06;2.40;99.90
12634;DHT22;6382;48.614;8.880;2023-04-21T05:12:33;2.30;99.90
12634;DHT22;6382;48.614;8.880;2023-04-21T05:14:59;2.40;99.90
12634;DHT22;6382;48.614;8.880;2023-04-21T05:17:26;2.60;99.90
12634;DHT22;6382;48.614;8.880;2023-04-21T05:19:54;4.90;99.90
12634;DHT22;6382;48.614;8.880;2023-04-21T05:22:21;2.70;99.90
12634;DHT22;6382;48.614;8.880;2023-04-21T05:24:48;2.80;99.90
12634;DHT22;6382;48.614;8.880;2023-04-21T05:27:15;2.80;99.90
12634;DHT22;6382;48.614;8.880;2023-04-21T05:29:41;2.80;99.90
12634;DHT22;6382;48.614;8.880;2023-04-21T05:32:08;2.90;99.90
12634;DHT22;6382;48.614;8.880;2023-04-21T05:34:37;3.80;99.90
12634;DHT22;6382;48.614;8.880;2023-04-21T05:37:04;2.80;99.90
12634;DHT22;6382;48.614;8.880;2023-04-21T05:39:31;2.90;99.90
12634;DHT22;6382;48.614;8.880;2023-04-21T05:41:58;2.90;99.90
12634;DHT22;6382;48.614;8.880;2023-04-21T05:44:24;2.90;99.90
12634;DHT22;6382;48.614;8.880;2023-04-21T05:46:51;3.00;99.90
12634;DHT22;6382;48.614;8.880;2023-04-21T05:49:18;2.90;99.90
12634;DHT22;6382;48.614;8.880;2023-04-21T05:51:45;3.00;99.90
12634;DHT22;6382;48.614;8.880;2023-04-21T05:54:11;3.00;99.90
12634;DHT22;6382;48.614;8.880;2023-04-21T05:56:38;2.90;99.90
12634;DHT22;6382;48.614;8.880;2023-04-21T05:59:05;2.90;99.90
12634;DHT22;6382;48.614;8.880;2023-04-21T06:01:32;2.90;99.90
12634;DHT22;6382;48.614;8.880;2023-04-21T06:03:59;2.80;99.90
12634;DHT22;6382;48.614;8.880;2023-04-21T06:06:28;2.70;99.90
12634;DHT22;6382;48.614;8.880;2023-04-21T06:08:54;2.70;99.90
12634;DHT22;6382;48.614;8.880;2023-04-21T06:11:21;2.60;99.90
12634;DHT22;6382;48.614;8.880;2023-04-21T06:13:49;2.70;99.90
12634;DHT22;6382;48.614;8.880;2023-04-21T06:16:16;2.70;99.90
12634;DHT22;6382;48.614;8.880;2023-04-21T06:18:43;2.60;99.90
12634;DHT22;6382;48.614;8.880;2023-04-21T06:21:10;2.70;99.90
12634;DHT22;6382;48.614;8.880;2023-04-21T06:23:36;2.80;99.90
12634;DHT22;6382;48.614;8.880;2023-04-21T06:26:03;2.80;99.90
12634;DHT22;6382;48.614;8.880;2023-04-21T06:28:32;4.50;99.90
12634;DHT22;6382;48.614;8.880;2023-04-21T06:31:00;5.70;99.90
12634;DHT22;6382;48.614;8.880;2023-04-21T06:33:27;2.90;99.90
12634;DHT22;6382;48.614;8.880;2023-04-21T06:35:53;2.90;99.90
12634;DHT22;6382;48.614;8.880;2023-04-21T06:38:20;2.90;99.90
12634;DHT22;6382;48.614;8.880;2023-04-21T06:40:47;2.90;99.90
12634;DHT22;6382;48.614;8.880;2023-04-21T06:43:14;3.00;99.90
12634;DHT22;6382;48.614;8.880;2023-04-21T06:45:41;3.10;99.90
12634;DHT22;6382;48.614;8.880;2023-04-21T06:48:08;3.30;99.90
12634;DHT22;6382;48.614;8.880;2023-04-21T06:50:35;3.50;99.90
12634;DHT22;6382;48.614;8.880;2023-04-21T06:53:02;3.70;99.90
12634;DHT22;6382;48.614;8.880;2023-04-21T06:55:28;3.80;99.90
12634;DHT22;6382;48.614;8.880;2023-04-21T06:57:55;3.90;99.90
12634;DHT22;6382;48.614;8.880;2023-04-21T07:00:22;6.10;99.90
12634;DHT22;6382;48.614;8.880;2023-04-21T07:02:48;4.00;99.90
12634;DHT22;6382;48.614;8.880;2023-04-21T07:05:16;4.10;99.90
12634;DHT22;6382;48.614;8.880;2023-04-21T07:07:42;4.10;99.90
12634;DHT22;6382;48.614;8.880;2023-04-21T07:10:09;4.30;99.90
12634;DHT22;6382;48.614;8.880;2023-04-21T07:12:36;4.40;99.90
12634;DHT22;6382;48.614;8.880;2023-04-21T07:15:03;4.50;99.90
12634;DHT22;6382;48.614;8.880;2023-04-21T07:17:30;4.60;99.90
12634;DHT22;6382;48.614;8.880;2023-04-21T07:19:57;4.70;99.90
12634;DHT22;6382;48.614;8.880;2023-04-21T07:22:23;4.70;99.90
12634;DHT22;6382;48.614;8.880;2023-04-21T07:24:50;4.90;99.90
12634;DHT22;6382;48.614;8.880;2023-04-21T07:27:17;5.00;99.90
12634;DHT22;6382;48.614;8.880;2023-04-21T07:29:44;3.50;99.90
12634;DHT22;6382;48.614;8.880;2023-04-21T07:32:11;5.20;99.90
12634;DHT22;6382;48.614;8.880;2023-04-21T07:34:38;5.30;99.90
12634;DHT22;6382;48.614;8.880;2023-04-21T07:37:05;5.40;99.90
12634;DHT22;6382;48.614;8.880;2023-04-21T07:39:32;5.50;99.90
12634;DHT22;6382;48.614;8.880;2023-04-21T07:41:58;5.60;99.90
12634;DHT22;6382;48.614;8.880;2023-04-21T07:44:25;5.70;99.90
12634;DHT22;6382;48.614;8.880;2023-04-21T07:46:52;5.80;99.90
12634;DHT22;6382;48.614;8.880;2023-04-21T07:49:18;5.90;99.90
12634;DHT22;6382;48.614;8.880;2023-04-21T07:51:45;6.10;99.90
12634;DHT22;6382;48.614;8.880;2023-04-21T07:54:12;6.20;99.90
12634;DHT22;6382;48.614;8.880;2023-04-21T07:56:39;6.30;99.90
12634;DHT22;6382;48.614;8.880;2023-04-21T07:59:06;6.50;99.90
12634;DHT22;6382;48.614;8.880;2023-04-21T08:01:33;6.60;99.90
12634;DHT22;6382;48.614;8.880;2023-04-21T08:03:59;6.70;99.90
12634;DHT22;6382;48.614;8.880;2023-04-21T08:06:27;6.50;99.90
12634;DHT22;6382;48.614;8.880;2023-04-21T08:08:54;6.80;99.90
12634;DHT22;6382;48.614;8.880;2023-04-21T08:11:21;6.80;99.90
12634;DHT22;6382;48.614;8.880;2023-04-21T08:13:48;6.90;99.90
12634;DHT22;6382;48.614;8.880;2023-04-21T08:16:15;7.00;99.90
12634;DHT22;6382;48.614;8.880;2023-04-21T08:18:42;8.90;99.90
12634;DHT22;6382;48.614;8.880;2023-04-21T08:21:08;7.20;99.90
12634;DHT22;6382;48.614;8.880;2023-04-21T08:23:35;9.60;99.90
12634;DHT22;6382;48.614;8.880;2023-04-21T08:26:02;7.40;99.90
12634;DHT22;6382;48.614;8.880;2023-04-21T08:28:29;7.40;99.90
12634;DHT22;6382;48.614;8.880;2023-04-21T08:30:55;7.40;99.90
12634;DHT22;6382;48.614;8.880;2023-04-21T08:33:22;7.50;99.90
12634;DHT22;6382;48.614;8.880;2023-04-21T08:35:49;7.50;99.90
12634;DHT22;6382;48.614;8.880;2023-04-21T08:38:28;7.60;99.90
12634;DHT22;6382;48.614;8.880;2023-04-21T08:40:55;7.60;99.90
12634;DHT22;6382;48.614;8.880;2023-04-21T08:43:24;7.70;99.90
12634;DHT22;6382;48.614;8.880;2023-04-21T08:45:51;7.80;99.90
12634;DHT22;6382;48.614;8.880;2023-04-21T08:48:20;7.90;99.90
12634;DHT22;6382;48.614;8.880;2023-04-21T08:50:48;8.00;99.90
12634;DHT22;6382;48.614;8.880;2023-04-21T08:53:15;8.20;99.90
12634;DHT22;6382;48.614;8.880;2023-04-21T08:55:42;8.30;99.90
12634;DHT22;6382;48.614;8.880;2023-04-21T08:58:09;8.30;99.90
12634;DHT22;6382;48.614;8.880;2023-04-21T09:00:36;8.40;99.90
12634;DHT22;6382;48.614;8.880;2023-04-21T09:03:03;8.60;99.90
12634;DHT22;6382;48.614;8.880;2023-04-21T09:05:58;11.10;99.90
12634;DHT22;6382;48.614;8.880;2023-04-21T09:08:26;8.70;99.90
12634;DHT22;6382;48.614;8.880;2023-04-21T09:10:55;8.80;99.90
12634;DHT22;6382;48.614;8.880;2023-04-21T09:13:28;8.90;99.90
12634;DHT22;6382;48.614;8.880;2023-04-21T09:15:55;10.10;99.90
12634;DHT22;6382;48.614;8.880;2023-04-21T09:18:22;8.90;99.90
12634;DHT22;6382;48.614;8.880;2023-04-21T09:20:51;9.00;99.90
12634;DHT22;6382;48.614;8.880;2023-04-21T09:23:19;9.10;99.90
12634;DHT22;6382;48.614;8.880;2023-04-21T09:25:46;9.20;99.90
12634;DHT22;6382;48.614;8.880;2023-04-21T09:28:13;9.50;99.90
12634;DHT22;6382;48.614;8.880;2023-04-21T09:30:40;9.40;99.90
12634;DHT22;6382;48.614;8.880;2023-04-21T09:33:13;9.70;99.90
12634;DHT22;6382;48.614;8.880;2023-04-21T09:35:54;9.80;99.90
12634;DHT22;6382;48.614;8.880;2023-04-21T09:38:21;9.90;99.90
12634;DHT22;6382;48.614;8.880;2023-04-21T09:40:57;10.60;99.90
12634;DHT22;6382;48.614;8.880;2023-04-21T09:43:24;10.00;99.90
12634;DHT22;6382;48.614;8.880;2023-04-21T09:45:52;11.30;99.90
12634;DHT22;6382;48.614;8.880;2023-04-21T09:48:19;10.00;99.90
12634;DHT22;6382;48.614;8.880;2023-04-21T09:50:48;12.80;99.90
12634;DHT22;6382;48.614;8.880;2023-04-21T09:53:18;11.50;99.90
12634;DHT22;6382;48.614;8.880;2023-04-21T09:55:48;12.80;99.90
12634;DHT22;6382;48.614;8.880;2023-04-21T09:58:19;11.50;99.90
12634;DHT22;6382;48.614;8.880;2023-04-21T10:00:45;10.10;99.90
12634;DHT22;6382;48.614;8.880;2023-04-21T10:03:12;12.80;99.90
12634;DHT22;6382;48.614;8.880;2023-04-21T10:05:40;10.30;99.90
12634;DHT22;6382;48.614;8.880;2023-04-21T10:08:10;12.80;99.90
12634;DHT22;6382;48.614;8.880;2023-04-21T10:10:37;12.60;99.90
12634;DHT22;6382;48.614;8.880;2023-04-21T10:13:04;12.20;99.90
12634;DHT22;6382;48.614;8.880;2023-04-21T10:20:49;10.90;99.90
12634;DHT22;6382;48.614;8.880;2023-04-21T10:23:28;11.00;99.90
12634;DHT22;6382;48.614;8.880;2023-04-21T10:26:00;11.20;99.90
12634;DHT22;6382;48.614;8.880;2023-04-21T10:28:40;13.40;99.90
12634;DHT22;6382;48.614;8.880;2023-04-21T10:36:32;11.80;99.90
12634;DHT22;6382;48.614;8.880;2023-04-21T10:39:00;12.00;99.90
12634;DHT22;6382;48.614;8.880;2023-04-21T10:41:30;14.30;99.90
12634;DHT22;6382;48.614;8.880;2023-04-21T10:44:01;13.50;99.90
12634;DHT22;6382;48.614;8.880;2023-04-21T10:46:44;12.40;99.90
12634;DHT22;6382;48.614;8.880;2023-04-21T10:54:28;12.50;99.90
12634;DHT22;6382;48.614;8.880;2023-04-21T10:56:55;14.20;99.90
12634;DHT22;6382;48.614;8.880;2023-04-21T10:59:23;13.30;99.90
12634;DHT22;6382;48.614;8.880;2023-04-21T11:01:50;12.60;99.90
12634;DHT22;6382;48.614;8.880;2023-04-21T11:04:17;15.50;99.90
12634;DHT22;6382;48.614;8.880;2023-04-21T11:09:32;12.90;99.90
12634;DHT22;6382;48.614;8.880;2023-04-21T11:12:00;12.80;99.90
12634;DHT22;6382;48.614;8.880;2023-04-21T11:14:28;12.80;99.90
12634;DHT22;6382;48.614;8.880;2023-04-21T11:16:55;12.90;99.90
12634;DHT22;6382;48.614;8.880;2023-04-21T11:19:22;13.00;99.90
12634;DHT22;6382;48.614;8.880;2023-04-21T11:21:52;13.10;99.90
12634;DHT22;6382;48.614;8.880;2023-04-21T11:24:22;13.10;99.90
12634;DHT22;6382;48.614;8.880;2023-04-21T11:26:49;12.50;99.90
12634;DHT22;6382;48.614;8.880;2023-04-21T11:29:16;13.40;99.90
12634;DHT22;6382;48.614;8.880;2023-04-21T11:31:43;13.60;99.90
12634;DHT22;6382;48.614;8.880;2023-04-21T11:34:13;13.70;99.90
12634;DHT22;6382;48.614;8.880;2023-04-21T11:36:42;13.80;99.90
12634;DHT22;6382;48.614;8.880;2023-04-21T11:39:11;13.90;99.90
12634;DHT22;6382;48.614;8.880;2023-04-21T11:41:39;13.80;99.90
12634;DHT22;6382;48.614;8.880;2023-04-21T11:44:10;13.90;99.90
12634;DHT22;6382;48.614;8.880;2023-04-21T11:46:37;14.00;99.90
12634;DHT22;6382;48.614;8.880;2023-04-21T11:49:10;14.10;99.90
12634;DHT22;6382;48.614;8.880;2023-04-21T11:51:38;14.20;99.90
12634;DHT22;6382;48.614;8.880;2023-04-21T11:54:06;14.20;99.90
12634;DHT22;6382;48.614;8.880;2023-04-21T11:56:33;14.30;99.90
12634;DHT22;6382;48.614;8.880;2023-04-21T11:59:00;15.40;99.90
12634;DHT22;6382;48.614;8.880;2023-04-21T12:01:31;16.70;99.90
12634;DHT22;6382;48.614;8.880;2023-04-21T12:03:58;15.50;99.90
12634;DHT22;6382;48.614;8.880;2023-04-21T12:06:26;14.60;99.90
12634;DHT22;6382;48.614;8.880;2023-04-21T12:08:55;14.80;99.90
12634;DHT22;6382;48.614;8.880;2023-04-21T12:11:23;16.50;99.90
12634;DHT22;6382;48.614;8.880;2023-04-21T12:13:50;14.90;99.90
12634;DHT22;6382;48.614;8.880;2023-04-21T12:16:17;15.00;99.90
12634;DHT22;6382;48.614;8.880;2023-04-21T12:18:44;15.10;99.90
12634;DHT22;6382;48.614;8.880;2023-04-21T12:21:13;16.40;99.90
12634;DHT22;6382;48.614;8.880;2023-04-21T12:23:40;15.50;99.90
12634;DHT22;6382;48.614;8.880;2023-04-21T12:26:06;15.60;99.90
12634;DHT22;6382;48.614;8.880;2023-04-21T12:28:33;15.60;99.90
12634;DHT22;6382;48.614;8.880;2023-04-21T12:31:00;15.70;99.90
12634;DHT22;6382;48.614;8.880;2023-04-21T12:33:27;15.80;99.90
12634;DHT22;6382;48.614;8.880;2023-04-21T12:35:54;15.90;99.90
12634;DHT22;6382;48.614;8.880;2023-04-21T12:38:22;15.90;99.90
12634;DHT22;6382;48.614;8.880;2023-04-21T12:40:48;16.00;99.90
12634;DHT22;6382;48.614;8.880;2023-04-21T12:43:15;16.00;99.90
12634;DHT22;6382;48.614;8.880;2023-04-21T12:45:42;17.20;99.90
12634;DHT22;6382;48.614;8.880;2023-04-21T12:48:09;15.70;99.90
12634;DHT22;6382;48.614;8.880;2023-04-21T12:50:36;17.40;99.90
12634;DHT22;6382;48.614;8.880;2023-04-21T12:53:04;15.70;99.90
12634;DHT22;6382;48.614;8.880;2023-04-21T12:55:30;15.80;99.90
12634;DHT22;6382;48.614;8.880;2023-04-21T12:57:57;16.20;99.90
12634;DHT22;6382;48.614;8.880;2023-04-21T13:00:24;17.10;99.90
12634;DHT22;6382;48.614;8.880;2023-04-21T13:02:51;15.90;99.90
12634;DHT22;6382;48.614;8.880;2023-04-21T13:05:18;16.30;99.90
12634;DHT22;6382;48.614;8.880;2023-04-21T13:07:46;16.00;99.90
12634;DHT22;6382;48.614;8.880;2023-04-21T13:10:13;16.10;99.90
12634;DHT22;6382;48.614;8.880;2023-04-21T13:12:40;16.50;99.90
12634;DHT22;6382;48.614;8.880;2023-04-21T13:15:07;16.30;99.90
12634;DHT22;6382;48.614;8.880;2023-04-21T13:17:34;16.40;99.90
12634;DHT22;6382;48.614;8.880;2023-04-21T13:20:01;16.60;99.90
12634;DHT22;6382;48.614;8.880;2023-04-21T13:22:28;16.70;99.90
12634;DHT22;6382;48.614;8.880;2023-04-21T13:24:55;18.10;99.90
12634;DHT22;6382;48.614;8.880;2023-04-21T13:27:22;19.30;99.90
12634;DHT22;6382;48.614;8.880;2023-04-21T13:29:49;16.90;99.90
12634;DHT22;6382;48.614;8.880;2023-04-21T13:32:16;17.00;99.90
12634;DHT22;6382;48.614;8.880;2023-04-21T13:34:43;17.10;99.90
12634;DHT22;6382;48.614;8.880;2023-04-21T13:37:10;17.10;99.90
12634;DHT22;6382;48.614;8.880;2023-04-21T13:39:41;18.30;99.90
12634;DHT22;6382;48.614;8.880;2023-04-21T13:42:08;17.40;99.90
12634;DHT22;6382;48.614;8.880;2023-04-21T13:44:35;17.40;99.90
12634;DHT22;6382;48.614;8.880;2023-04-21T13:47:02;17.50;99.90
12634;DHT22;6382;48.614;8.880;2023-04-21T13:49:33;17.30;99.90
12634;DHT22;6382;48.614;8.880;2023-04-21T13:52:00;17.20;99.90
12634;DHT22;6382;48.614;8.880;2023-04-21T13:54:27;17.10;99.90
12634;DHT22;6382;48.614;8.880;2023-04-21T13:56:54;17.10;99.90
12634;DHT22;6382;48.614;8.880;2023-04-21T13:59:22;17.10;99.90
12634;DHT22;6382;48.614;8.880;2023-04-21T14:01:56;17.00;99.90
12634;DHT22;6382;48.614;8.880;2023-04-21T14:04:23;17.10;99.90
12634;DHT22;6382;48.614;8.880;2023-04-21T14:06:50;18.00;99.90
12634;DHT22;6382;48.614;8.880;2023-04-21T14:09:17;17.30;99.90
12634;DHT22;6382;48.614;8.880;2023-04-21T14:11:44;17.50;99.90
12634;DHT22;6382;48.614;8.880;2023-04-21T14:14:11;17.70;99.90
12634;DHT22;6382;48.614;8.880;2023-04-21T14:16:42;17.10;99.90
12634;DHT22;6382;48.614;8.880;2023-04-21T14:19:09;17.30;99.90
12634;DHT22;6382;48.614;8.880;2023-04-21T14:21:36;17.10;99.90
12634;DHT22;6382;48.614;8.880;2023-04-21T14:24:03;17.60;99.90
12634;DHT22;6382;48.614;8.880;2023-04-21T14:26:29;17.20;99.90
12634;DHT22;6382;48.614;8.880;2023-04-21T14:28:56;19.30;99.90
12634;DHT22;6382;48.614;8.880;2023-04-21T14:31:25;17.40;99.90
12634;DHT22;6382;48.614;8.880;2023-04-21T14:33:51;17.40;99.90
12634;DHT22;6382;48.614;8.880;2023-04-21T14:36:18;17.60;99.90
12634;DHT22;6382;48.614;8.880;2023-04-21T14:38:46;17.60;99.90
12634;DHT22;6382;48.614;8.880;2023-04-21T14:41:13;17.70;99.90
12634;DHT22;6382;48.614;8.880;2023-04-21T14:43:40;17.90;99.90
12634;DHT22;6382;48.614;8.880;2023-04-21T14:46:06;18.00;99.90
12634;DHT22;6382;48.614;8.880;2023-04-21T14:48:34;18.00;99.90
12634;DHT22;6382;48.614;8.880;2023-04-21T14:51:01;18.10;99.90
12634;DHT22;6382;48.614;8.880;2023-04-21T14:53:27;18.10;99.90
12634;DHT22;6382;48.614;8.880;2023-04-21T14:55:54;17.80;99.90
12634;DHT22;6382;48.614;8.880;2023-04-21T14:58:21;17.70;99.90
12634;DHT22;6382;48.614;8.880;2023-04-21T15:00:48;17.60;99.90
12634;DHT22;6382;48.614;8.880;2023-04-21T15:03:15;17.40;99.90
12634;DHT22;6382;48.614;8.880;2023-04-21T15:05:42;16.80;99.90
12634;DHT22;6382;48.614;8.880;2023-04-21T15:08:09;17.20;99.90
12634;DHT22;6382;48.614;8.880;2023-04-21T15:10:37;18.70;99.90
12634;DHT22;6382;48.614;8.880;2023-04-21T15:13:04;18.80;99.90
12634;DHT22;6382;48.614;8.880;2023-04-21T15:15:31;17.30;99.90
12634;DHT22;6382;48.614;8.880;2023-04-21T15:18:00;17.30;99.90
12634;DHT22;6382;48.614;8.880;2023-04-21T15:20:27;17.40;99.90
12634;DHT22;6382;48.614;8.880;2023-04-21T15:23:10;17.30;99.90
12634;DHT22;6382;48.614;8.880;2023-04-21T15:25:37;17.70;99.90
12634;DHT22;6382;48.614;8.880;2023-04-21T15:28:05;17.30;99.90
12634;DHT22;6382;48.614;8.880;2023-04-21T15:30:33;17.30;99.90
12634;DHT22;6382;48.614;8.880;2023-04-21T15:33:00;19.70;99.90
12634;DHT22;6382;48.614;8.880;2023-04-21T15:35:26;17.50;99.90
12634;DHT22;6382;48.614;8.880;2023-04-21T15:37:53;17.20;99.90
12634;DHT22;6382;48.614;8.880;2023-04-21T15:40:20;17.00;99.90
12634;DHT22;6382;48.614;8.880;2023-04-21T15:42:47;17.90;99.90
12634;DHT22;6382;48.614;8.880;2023-04-21T15:45:14;16.90;99.90
12634;DHT22;6382;48.614;8.880;2023-04-21T15:47:43;16.90;99.90
12634;DHT22;6382;48.614;8.880;2023-04-21T15:50:10;16.80;99.90
12634;DHT22;6382;48.614;8.880;2023-04-21T15:52:37;18.20;99.90
12634;DHT22;6382;48.614;8.880;2023-04-21T15:55:11;16.90;99.90
12634;DHT22;6382;48.614;8.880;2023-04-21T15:57:38;16.80;99.90
12634;DHT22;6382;48.614;8.880;2023-04-21T16:00:05;16.70;99.90
12634;DHT22;6382;48.614;8.880;2023-04-21T16:02:36;16.60;99.90
12634;DHT22;6382;48.614;8.880;2023-04-21T16:05:03;16.40;99.90
12634;DHT22;6382;48.614;8.880;2023-04-21T16:07:30;16.30;99.90
12634;DHT22;6382;48.614;8.880;2023-04-21T16:09:57;16.20;99.90
12634;DHT22;6382;48.614;8.880;2023-04-21T16:12:24;16.10;99.90
12634;DHT22;6382;48.614;8.880;2023-04-21T16:14:51;18.50;99.90